sensor_id;sensor_type;location;lat;lon;timestamp;pressure;altitude;pressure_sealevel;temperature;humidity
73242;BME280;65659;49.234;-2.094;2023-04-24T00:01:44;99844.18;;;14.19;45.98
73242;BME280;65659;49.234;-2.094;2023-04-24T00:04:10;99841.15;;;14.20;46.01
73242;BME280;65659;49.234;-2.094;2023-04-24T00:06:40;99838.10;;;14.22;46.06
73242;BME280;65659;49.234;-2.094;2023-04-24T00:09:00;99842.97;;;14.18;46.12
73242;BME280;65659;49.234;-2.094;2023-04-24T00:11:26;99852.93;;;14.26;46.04
73242;BME280;65659;49.234;-2.094;2023-04-24T00:13:51;99852.53;;;14.27;45.98
73242;BME280;65659;49.234;-2.094;2023-04-24T00:16:22;99855.06;;;14.05;46.33
73242;BME280;65659;49.234;-2.094;2023-04-24T00:18:42;99850.55;;;14.04;45.90
73242;BME280;65659;49.234;-2.094;2023-04-24T00:21:07;99854.98;;;14.08;46.07
73242;BME280;65659;49.234;-2.094;2023-04-24T00:23:32;99857.11;;;14.23;45.95
73242;BME280;65659;49.234;-2.094;2023-04-24T00:25:57;99859.46;;;14.24;45.92
73242;BME280;65659;49.234;-2.094;2023-04-24T00:28:23;99858.21;;;14.37;46.07
73242;BME280;65659;49.234;-2.094;2023-04-24T00:30:48;99854.45;;;13.93;46.34
73242;BME280;65659;49.234;-2.094;2023-04-24T00:33:19;99857.26;;;14.03;46.15
73242;BME280;65659;49.234;-2.094;2023-04-24T00:35:39;99855.95;;;14.02;46.15
73242;BME280;65659;49.234;-2.094;2023-04-24T00:38:03;99854.40;;;14.04;46.17
73242;BME280;65659;49.234;-2.094;2023-04-24T00:40:29;99854.37;;;13.98;46.29
73242;BME280;65659;49.234;-2.094;2023-04-24T00:42:54;99850.31;;;14.00;46.25
73242;BME280;65659;49.234;-2.094;2023-04-24T00:45:20;99857.89;;;13.92;46.33
73242;BME280;65659;49.234;-2.094;2023-04-24T00:47:45;99860.01;;;13.96;46.28
73242;BME280;65659;49.234;-2.094;2023-04-24T00:50:11;99858.64;;;13.96;46.19
73242;BME280;65659;49.234;-2.094;2023-04-24T00:52:36;99861.24;;;13.95;46.18
73242;BME280;65659;49.234;-2.094;2023-04-24T00:55:01;99866.84;;;14.15;46.29
73242;BME280;65659;49.234;-2.094;2023-04-24T00:57:27;99869.57;;;13.93;46.33
73242;BME280;65659;49.234;-2.094;2023-04-24T00:59:52;99876.05;;;13.91;46.40
73242;BME280;65659;49.234;-2.094;2023-04-24T01:02:17;99871.32;;;13.80;46.57
73242;BME280;65659;49.234;-2.094;2023-04-24T01:04:42;99874.40;;;13.89;46.47
73242;BME280;65659;49.234;-2.094;2023-04-24T01:07:08;99874.60;;;14.17;46.31
73242;BME280;65659;49.234;-2.094;2023-04-24T01:09:33;99878.33;;;13.94;46.30
73242;BME280;65659;49.234;-2.094;2023-04-24T01:11:59;99877.27;;;14.25;46.20
73242;BME280;65659;49.234;-2.094;2023-04-24T01:14:24;99878.36;;;14.04;46.20
73242;BME280;65659;49.234;-2.094;2023-04-24T01:16:49;99881.10;;;14.03;46.26
73242;BME280;65659;49.234;-2.094;2023-04-24T01:19:15;99881.54;;;14.14;46.13
73242;BME280;65659;49.234;-2.094;2023-04-24T01:21:42;99884.62;;;14.16;46.17
73242;BME280;65659;49.234;-2.094;2023-04-24T01:24:06;99885.92;;;14.12;46.19
73242;BME280;65659;49.234;-2.094;2023-04-24T01:26:30;99883.30;;;13.91;45.95
73242;BME280;65659;49.234;-2.094;2023-04-24T01:28:56;99881.55;;;14.37;46.01
73242;BME280;65659;49.234;-2.094;2023-04-24T01:31:26;99883.02;;;14.07;45.94
73242;BME280;65659;49.234;-2.094;2023-04-24T01:33:46;99880.63;;;13.92;46.05
73242;BME280;65659;49.234;-2.094;2023-04-24T01:36:12;99885.12;;;13.98;45.92
73242;BME280;65659;49.234;-2.094;2023-04-24T01:38:37;99882.79;;;14.12;45.70
73242;BME280;65659;49.234;-2.094;2023-04-24T01:41:02;99882.07;;;14.17;45.65
73242;BME280;65659;49.234;-2.094;2023-04-24T01:43:32;99872.07;;;14.15;45.65
73242;BME280;65659;49.234;-2.094;2023-04-24T01:45:52;99876.06;;;14.06;45.60
73242;BME280;65659;49.234;-2.094;2023-04-24T01:48:28;99882.49;;;13.88;45.43
73242;BME280;65659;49.234;-2.094;2023-04-24T01:50:48;99883.36;;;14.35;45.30
73242;BME280;65659;49.234;-2.094;2023-04-24T01:53:08;99889.72;;;14.12;45.30
73242;BME280;65659;49.234;-2.094;2023-04-24T01:55:33;99888.22;;;13.98;45.39
73242;BME280;65659;49.234;-2.094;2023-04-24T01:57:59;99889.24;;;14.08;45.27
73242;BME280;65659;49.234;-2.094;2023-04-24T02:00:29;99889.13;;;14.10;45.25
73242;BME280;65659;49.234;-2.094;2023-04-24T02:02:50;99894.84;;;13.86;45.20
73242;BME280;65659;49.234;-2.094;2023-04-24T02:05:14;99895.05;;;13.84;45.14
73242;BME280;65659;49.234;-2.094;2023-04-24T02:07:41;99899.60;;;14.08;45.03
73242;BME280;65659;49.234;-2.094;2023-04-24T02:10:07;99902.71;;;14.13;44.94
73242;BME280;65659;49.234;-2.094;2023-04-24T02:12:32;99895.52;;;13.87;44.89
73242;BME280;65659;49.234;-2.094;2023-04-24T02:15:02;99893.92;;;14.02;44.96
73242;BME280;65659;49.234;-2.094;2023-04-24T02:17:22;99895.20;;;14.01;44.92
73242;BME280;65659;49.234;-2.094;2023-04-24T02:19:48;99900.02;;;14.14;44.97
73242;BME280;65659;49.234;-2.094;2023-04-24T02:22:13;99908.26;;;13.96;45.06
73242;BME280;65659;49.234;-2.094;2023-04-24T02:24:39;99907.99;;;13.97;44.97
73242;BME280;65659;49.234;-2.094;2023-04-24T02:27:04;99908.71;;;13.75;44.94
73242;BME280;65659;49.234;-2.094;2023-04-24T02:29:29;99907.41;;;14.39;44.99
73242;BME280;65659;49.234;-2.094;2023-04-24T02:31:55;99905.52;;;14.29;44.84
73242;BME280;65659;49.234;-2.094;2023-04-24T02:34:21;99908.59;;;13.66;45.09
73242;BME280;65659;49.234;-2.094;2023-04-24T02:36:46;99912.16;;;13.93;45.06
73242;BME280;65659;49.234;-2.094;2023-04-24T02:39:12;99908.14;;;14.04;44.96
73242;BME280;65659;49.234;-2.094;2023-04-24T02:41:37;99910.82;;;14.05;45.19
73242;BME280;65659;49.234;-2.094;2023-04-24T02:44:03;99913.38;;;14.06;44.79
73242;BME280;65659;49.234;-2.094;2023-04-24T02:46:29;99911.44;;;14.12;44.67
73242;BME280;65659;49.234;-2.094;2023-04-24T02:48:54;99914.31;;;14.08;44.60
73242;BME280;65659;49.234;-2.094;2023-04-24T02:51:19;99911.63;;;14.01;44.34
73242;BME280;65659;49.234;-2.094;2023-04-24T02:53:44;99912.66;;;14.01;44.27
73242;BME280;65659;49.234;-2.094;2023-04-24T02:56:09;99919.74;;;14.07;44.10
73242;BME280;65659;49.234;-2.094;2023-04-24T02:58:34;99922.47;;;14.07;44.07
73242;BME280;65659;49.234;-2.094;2023-04-24T03:01:00;99924.45;;;14.11;44.11
73242;BME280;65659;49.234;-2.094;2023-04-24T03:03:32;99923.71;;;14.34;44.11
73242;BME280;65659;49.234;-2.094;2023-04-24T03:05:51;99925.17;;;14.10;44.10
73242;BME280;65659;49.234;-2.094;2023-04-24T03:08:22;99928.06;;;14.11;44.14
73242;BME280;65659;49.234;-2.094;2023-04-24T03:10:42;99925.61;;;13.65;44.13
73242;BME280;65659;49.234;-2.094;2023-04-24T03:13:07;99923.23;;;14.08;44.19
73242;BME280;65659;49.234;-2.094;2023-04-24T03:15:32;99920.23;;;13.90;44.16
73242;BME280;65659;49.234;-2.094;2023-04-24T03:17:57;99922.15;;;14.18;44.03
73242;BME280;65659;49.234;-2.094;2023-04-24T03:20:23;99927.16;;;14.20;44.02
73242;BME280;65659;49.234;-2.094;2023-04-24T03:22:48;99927.18;;;14.21;43.97
73242;BME280;65659;49.234;-2.094;2023-04-24T03:25:13;99926.93;;;14.19;43.97
73242;BME280;65659;49.234;-2.094;2023-04-24T03:27:38;99931.59;;;14.17;43.73
73242;BME280;65659;49.234;-2.094;2023-04-24T03:30:09;99929.50;;;14.15;43.75
73242;BME280;65659;49.234;-2.094;2023-04-24T03:32:29;99931.91;;;14.15;43.76
73242;BME280;65659;49.234;-2.094;2023-04-24T03:34:55;99934.21;;;14.16;43.77
73242;BME280;65659;49.234;-2.094;2023-04-24T03:37:25;99932.78;;;14.35;43.62
73242;BME280;65659;49.234;-2.094;2023-04-24T03:39:46;99934.03;;;14.20;43.53
73242;BME280;65659;49.234;-2.094;2023-04-24T03:42:12;99935.78;;;14.23;43.45
73242;BME280;65659;49.234;-2.094;2023-04-24T03:44:37;99942.26;;;14.19;43.44
73242;BME280;65659;49.234;-2.094;2023-04-24T03:47:02;99942.80;;;14.12;43.56
73242;BME280;65659;49.234;-2.094;2023-04-24T03:49:27;99944.18;;;14.24;43.35
73242;BME280;65659;49.234;-2.094;2023-04-24T03:51:52;99948.01;;;13.84;43.54
73242;BME280;65659;49.234;-2.094;2023-04-24T03:54:18;99954.65;;;13.96;43.44
73242;BME280;65659;49.234;-2.094;2023-04-24T03:56:49;99959.24;;;14.17;43.49
73242;BME280;65659;49.234;-2.094;2023-04-24T03:59:09;99956.82;;;14.18;43.53
73242;BME280;65659;49.234;-2.094;2023-04-24T04:01:34;99959.35;;;14.23;43.60
73242;BME280;65659;49.234;-2.094;2023-04-24T04:04:05;99959.13;;;14.15;43.70
73242;BME280;65659;49.234;-2.094;2023-04-24T04:06:24;99959.26;;;14.21;43.57
73242;BME280;65659;49.234;-2.094;2023-04-24T04:08:49;99955.22;;;13.91;43.65
73242;BME280;65659;49.234;-2.094;2023-04-24T04:11:20;99956.87;;;14.11;43.60
73242;BME280;65659;49.234;-2.094;2023-04-24T04:13:41;99955.92;;;14.02;43.78
73242;BME280;65659;49.234;-2.094;2023-04-24T04:16:20;99961.39;;;14.12;43.82
73242;BME280;65659;49.234;-2.094;2023-04-24T04:18:31;99964.51;;;14.14;43.92
73242;BME280;65659;49.234;-2.094;2023-04-24T04:20:57;99968.42;;;14.20;43.94
73242;BME280;65659;49.234;-2.094;2023-04-24T04:23:22;99969.43;;;14.20;44.08
73242;BME280;65659;49.234;-2.094;2023-04-24T04:25:47;99972.93;;;14.13;44.11
73242;BME280;65659;49.234;-2.094;2023-04-24T04:28:13;99977.16;;;14.47;44.00
73242;BME280;65659;49.234;-2.094;2023-04-24T04:30:39;99975.43;;;14.14;44.03
73242;BME280;65659;49.234;-2.094;2023-04-24T04:33:04;99979.14;;;13.87;44.07
73242;BME280;65659;49.234;-2.094;2023-04-24T04:35:34;99978.89;;;13.99;44.16
73242;BME280;65659;49.234;-2.094;2023-04-24T04:37:54;99982.44;;;13.91;44.21
73242;BME280;65659;49.234;-2.094;2023-04-24T04:40:20;99987.02;;;13.85;44.17
73242;BME280;65659;49.234;-2.094;2023-04-24T04:42:45;99989.41;;;13.76;44.23
73242;BME280;65659;49.234;-2.094;2023-04-24T04:45:11;99989.41;;;13.92;44.34
73242;BME280;65659;49.234;-2.094;2023-04-24T04:47:36;99984.00;;;13.61;44.38
73242;BME280;65659;49.234;-2.094;2023-04-24T04:50:01;99987.66;;;13.53;44.47
73242;BME280;65659;49.234;-2.094;2023-04-24T04:52:37;99991.22;;;13.50;44.46
73242;BME280;65659;49.234;-2.094;2023-04-24T04:54:51;99992.92;;;13.93;44.63
73242;BME280;65659;49.234;-2.094;2023-04-24T04:57:21;99994.70;;;13.43;44.67
73242;BME280;65659;49.234;-2.094;2023-04-24T04:59:42;99997.85;;;13.65;44.68
73242;BME280;65659;49.234;-2.094;2023-04-24T05:02:07;100003.29;;;13.42;44.60
73242;BME280;65659;49.234;-2.094;2023-04-24T05:04:32;100004.36;;;13.36;44.67
73242;BME280;65659;49.234;-2.094;2023-04-24T05:06:57;100010.50;;;13.27;44.76
73242;BME280;65659;49.234;-2.094;2023-04-24T05:09:22;100013.39;;;13.49;44.80
73242;BME280;65659;49.234;-2.094;2023-04-24T05:11:47;100013.98;;;13.40;44.84
73242;BME280;65659;49.234;-2.094;2023-04-24T05:14:12;100016.79;;;13.39;44.81
73242;BME280;65659;49.234;-2.094;2023-04-24T05:16:38;100019.38;;;13.36;44.84
73242;BME280;65659;49.234;-2.094;2023-04-24T05:19:03;100020.76;;;13.55;44.82
73242;BME280;65659;49.234;-2.094;2023-04-24T05:21:28;100023.10;;;13.26;44.86
73242;BME280;65659;49.234;-2.094;2023-04-24T05:23:53;100028.21;;;13.45;44.90
73242;BME280;65659;49.234;-2.094;2023-04-24T05:26:19;100025.96;;;13.46;44.85
73242;BME280;65659;49.234;-2.094;2023-04-24T05:28:44;100025.74;;;13.18;44.93
73242;BME280;65659;49.234;-2.094;2023-04-24T05:31:09;100029.21;;;13.38;44.96
73242;BME280;65659;49.234;-2.094;2023-04-24T05:33:35;100033.63;;;13.37;44.96
73242;BME280;65659;49.234;-2.094;2023-04-24T05:36:01;100040.52;;;13.37;45.02
73242;BME280;65659;49.234;-2.094;2023-04-24T05:38:25;100039.23;;;12.91;45.07
73242;BME280;65659;49.234;-2.094;2023-04-24T05:40:51;100041.12;;;13.16;45.03
73242;BME280;65659;49.234;-2.094;2023-04-24T05:43:21;100039.30;;;13.20;45.04
73242;BME280;65659;49.234;-2.094;2023-04-24T05:45:41;100039.17;;;13.45;45.04
73242;BME280;65659;49.234;-2.094;2023-04-24T05:48:06;100042.53;;;13.18;45.16
73242;BME280;65659;49.234;-2.094;2023-04-24T05:50:31;100050.25;;;13.17;45.20
73242;BME280;65659;49.234;-2.094;2023-04-24T05:52:57;100054.24;;;13.46;45.24
73242;BME280;65659;49.234;-2.094;2023-04-24T05:55:22;100055.70;;;13.25;45.31
73242;BME280;65659;49.234;-2.094;2023-04-24T05:57:47;100054.56;;;13.30;45.30
73242;BME280;65659;49.234;-2.094;2023-04-24T06:00:13;100051.99;;;13.14;45.25
73242;BME280;65659;49.234;-2.094;2023-04-24T06:02:38;100050.77;;;13.68;45.26
73242;BME280;65659;49.234;-2.094;2023-04-24T06:05:04;100053.14;;;13.17;45.34
73242;BME280;65659;49.234;-2.094;2023-04-24T06:07:29;100058.16;;;13.58;45.23
73242;BME280;65659;49.234;-2.094;2023-04-24T06:09:54;100055.20;;;13.64;45.30
73242;BME280;65659;49.234;-2.094;2023-04-24T06:12:19;100052.08;;;13.48;45.24
73242;BME280;65659;49.234;-2.094;2023-04-24T06:14:55;100051.27;;;13.35;45.20
73242;BME280;65659;49.234;-2.094;2023-04-24T06:17:10;100051.62;;;13.66;45.29
73242;BME280;65659;49.234;-2.094;2023-04-24T06:19:36;100053.50;;;13.85;45.13
73242;BME280;65659;49.234;-2.094;2023-04-24T06:22:01;100054.90;;;13.99;45.18
73242;BME280;65659;49.234;-2.094;2023-04-24T06:24:27;100054.87;;;14.14;45.10
73242;BME280;65659;49.234;-2.094;2023-04-24T06:26:56;100050.54;;;14.25;44.99
73242;BME280;65659;49.234;-2.094;2023-04-24T06:29:17;100045.06;;;14.54;44.74
73242;BME280;65659;49.234;-2.094;2023-04-24T06:31:42;100045.23;;;14.12;44.69
73242;BME280;65659;49.234;-2.094;2023-04-24T06:34:08;100042.39;;;14.41;44.24
73242;BME280;65659;49.234;-2.094;2023-04-24T06:36:32;100036.46;;;14.31;44.01
73242;BME280;65659;49.234;-2.094;2023-04-24T06:38:58;100036.82;;;14.58;43.69
73242;BME280;65659;49.234;-2.094;2023-04-24T06:41:23;100032.11;;;14.71;43.50
73242;BME280;65659;49.234;-2.094;2023-04-24T06:43:47;100032.39;;;14.54;43.10
73242;BME280;65659;49.234;-2.094;2023-04-24T06:46:13;100034.46;;;14.76;42.67
73242;BME280;65659;49.234;-2.094;2023-04-24T06:48:39;100029.99;;;14.66;42.04
73242;BME280;65659;49.234;-2.094;2023-04-24T06:51:04;100031.51;;;15.11;41.78
73242;BME280;65659;49.234;-2.094;2023-04-24T06:53:29;100034.03;;;15.07;42.02
73242;BME280;65659;49.234;-2.094;2023-04-24T06:55:54;100031.84;;;14.70;41.76
73242;BME280;65659;49.234;-2.094;2023-04-24T06:58:19;100029.75;;;15.23;41.53
73242;BME280;65659;49.234;-2.094;2023-04-24T07:00:44;100029.79;;;14.95;41.15
73242;BME280;65659;49.234;-2.094;2023-04-24T07:03:10;100028.46;;;15.12;40.56
73242;BME280;65659;49.234;-2.094;2023-04-24T07:05:35;100029.23;;;15.38;40.51
73242;BME280;65659;49.234;-2.094;2023-04-24T07:08:00;100031.93;;;14.99;40.48
73242;BME280;65659;49.234;-2.094;2023-04-24T07:10:25;100021.92;;;15.25;40.13
73242;BME280;65659;49.234;-2.094;2023-04-24T07:12:51;100032.44;;;15.63;39.89
73242;BME280;65659;49.234;-2.094;2023-04-24T07:15:16;100031.99;;;15.53;39.88
73242;BME280;65659;49.234;-2.094;2023-04-24T07:17:41;100029.95;;;15.06;39.95
73242;BME280;65659;49.234;-2.094;2023-04-24T07:20:07;100030.70;;;15.22;39.28
73242;BME280;65659;49.234;-2.094;2023-04-24T07:22:32;100033.05;;;15.98;38.90
73242;BME280;65659;49.234;-2.094;2023-04-24T07:24:57;100035.08;;;15.53;39.08
73242;BME280;65659;49.234;-2.094;2023-04-24T07:27:23;100037.32;;;15.55;38.72
73242;BME280;65659;49.234;-2.094;2023-04-24T07:29:49;100040.32;;;15.48;37.71
73242;BME280;65659;49.234;-2.094;2023-04-24T07:32:13;100041.79;;;15.84;37.00
73242;BME280;65659;49.234;-2.094;2023-04-24T07:34:38;100040.45;;;16.14;36.63
73242;BME280;65659;49.234;-2.094;2023-04-24T07:37:03;100047.38;;;16.69;36.71
73242;BME280;65659;49.234;-2.094;2023-04-24T07:39:28;100051.29;;;15.93;36.78
73242;BME280;65659;49.234;-2.094;2023-04-24T07:41:55;100058.21;;;15.78;36.86
73242;BME280;65659;49.234;-2.094;2023-04-24T07:44:20;100049.00;;;15.80;36.77
73242;BME280;65659;49.234;-2.094;2023-04-24T07:46:46;100056.56;;;16.57;36.46
73242;BME280;65659;49.234;-2.094;2023-04-24T07:49:12;100056.39;;;16.18;36.31
73242;BME280;65659;49.234;-2.094;2023-04-24T07:51:37;100052.27;;;16.17;36.33
73242;BME280;65659;49.234;-2.094;2023-04-24T07:54:03;100049.40;;;16.19;35.48
73242;BME280;65659;49.234;-2.094;2023-04-24T07:56:28;100046.70;;;16.34;35.43
73242;BME280;65659;49.234;-2.094;2023-04-24T07:58:54;100051.41;;;16.56;35.49
73242;BME280;65659;49.234;-2.094;2023-04-24T08:01:19;100050.31;;;16.66;35.64
73242;BME280;65659;49.234;-2.094;2023-04-24T08:03:45;100050.28;;;16.88;35.51
73242;BME280;65659;49.234;-2.094;2023-04-24T08:06:29;100047.82;;;17.40;35.49
73242;BME280;65659;49.234;-2.094;2023-04-24T08:08:37;100047.11;;;16.77;35.28
73242;BME280;65659;49.234;-2.094;2023-04-24T08:11:02;100053.24;;;16.92;35.13
73242;BME280;65659;49.234;-2.094;2023-04-24T08:13:27;100055.15;;;16.86;35.33
73242;BME280;65659;49.234;-2.094;2023-04-24T08:15:52;100057.79;;;16.41;35.63
73242;BME280;65659;49.234;-2.094;2023-04-24T08:18:28;100047.04;;;16.87;35.54
73242;BME280;65659;49.234;-2.094;2023-04-24T08:20:49;100055.89;;;16.79;35.42
73242;BME280;65659;49.234;-2.094;2023-04-24T08:23:17;100051.57;;;16.84;35.08
73242;BME280;65659;49.234;-2.094;2023-04-24T08:25:36;100051.01;;;16.85;35.29
73242;BME280;65659;49.234;-2.094;2023-04-24T08:28:03;100043.65;;;17.27;35.58
73242;BME280;65659;49.234;-2.094;2023-04-24T08:30:34;100044.70;;;17.13;35.06
73242;BME280;65659;49.234;-2.094;2023-04-24T08:33:01;100043.76;;;17.69;34.36
73242;BME280;65659;49.234;-2.094;2023-04-24T08:35:20;100045.31;;;17.47;35.25
73242;BME280;65659;49.234;-2.094;2023-04-24T08:37:43;100049.23;;;17.00;35.50
73242;BME280;65659;49.234;-2.094;2023-04-24T08:40:15;100043.26;;;16.87;35.32
73242;BME280;65659;49.234;-2.094;2023-04-24T08:42:37;100048.68;;;17.32;34.40
73242;BME280;65659;49.234;-2.094;2023-04-24T08:45:12;100055.66;;;17.14;34.40
73242;BME280;65659;49.234;-2.094;2023-04-24T08:47:38;100048.86;;;17.33;34.42
73242;BME280;65659;49.234;-2.094;2023-04-24T08:49:54;100059.94;;;17.39;34.70
73242;BME280;65659;49.234;-2.094;2023-04-24T08:52:29;100051.57;;;17.28;35.40
73242;BME280;65659;49.234;-2.094;2023-04-24T08:57:15;100053.88;;;17.74;35.08
73242;BME280;65659;49.234;-2.094;2023-04-24T09:02:00;100059.81;;;16.67;36.19
73242;BME280;65659;49.234;-2.094;2023-04-24T09:04:29;100050.30;;;16.51;36.35
73242;BME280;65659;49.234;-2.094;2023-04-24T09:06:57;100052.71;;;17.09;35.27
73242;BME280;65659;49.234;-2.094;2023-04-24T09:09:25;100059.82;;;17.13;35.69
73242;BME280;65659;49.234;-2.094;2023-04-24T09:14:16;100055.23;;;17.26;36.25
73242;BME280;65659;49.234;-2.094;2023-04-24T09:16:50;100058.63;;;17.15;35.45
73242;BME280;65659;49.234;-2.094;2023-04-24T09:19:05;100056.97;;;17.12;34.12
73242;BME280;65659;49.234;-2.094;2023-04-24T09:26:26;100063.07;;;18.08;31.79
73242;BME280;65659;49.234;-2.094;2023-04-24T09:28:42;100059.54;;;18.09;31.73
73242;BME280;65659;49.234;-2.094;2023-04-24T09:31:19;100063.11;;;17.63;31.82
73242;BME280;65659;49.234;-2.094;2023-04-24T09:33:30;100070.70;;;17.66;32.11
73242;BME280;65659;49.234;-2.094;2023-04-24T09:35:54;100078.52;;;18.14;32.26
73242;BME280;65659;49.234;-2.094;2023-04-24T09:38:24;100071.51;;;17.83;33.35
73242;BME280;65659;49.234;-2.094;2023-04-24T09:40:46;100076.75;;;17.79;34.00
73242;BME280;65659;49.234;-2.094;2023-04-24T09:43:11;100080.00;;;17.66;34.69
73242;BME280;65659;49.234;-2.094;2023-04-24T09:45:37;100083.89;;;17.60;35.03
73242;BME280;65659;49.234;-2.094;2023-04-24T09:48:02;100085.04;;;17.75;35.23
73242;BME280;65659;49.234;-2.094;2023-04-24T09:50:32;100088.97;;;17.20;36.03
73242;BME280;65659;49.234;-2.094;2023-04-24T09:53:02;100077.35;;;17.33;36.28
73242;BME280;65659;49.234;-2.094;2023-04-24T09:55:45;100083.53;;;17.59;36.45
73242;BME280;65659;49.234;-2.094;2023-04-24T09:57:58;100083.40;;;17.43;36.64
73242;BME280;65659;49.234;-2.094;2023-04-24T10:02:36;100081.83;;;17.35;36.19
73242;BME280;65659;49.234;-2.094;2023-04-24T10:05:24;100082.31;;;17.26;36.44
73242;BME280;65659;49.234;-2.094;2023-04-24T10:07:41;100079.06;;;17.21;35.99
73242;BME280;65659;49.234;-2.094;2023-04-24T10:09:54;100077.25;;;17.34;35.91
73242;BME280;65659;49.234;-2.094;2023-04-24T10:12:20;100081.06;;;17.16;35.87
73242;BME280;65659;49.234;-2.094;2023-04-24T10:14:59;100074.99;;;17.22;35.80
73242;BME280;65659;49.234;-2.094;2023-04-24T10:17:15;100085.40;;;17.74;35.45
73242;BME280;65659;49.234;-2.094;2023-04-24T10:19:45;100097.30;;;17.47;35.48
73242;BME280;65659;49.234;-2.094;2023-04-24T10:24:29;100098.20;;;17.94;34.66
73242;BME280;65659;49.234;-2.094;2023-04-24T10:26:52;100090.53;;;18.19;34.58
73242;BME280;65659;49.234;-2.094;2023-04-24T10:29:21;100089.60;;;17.61;34.91
73242;BME280;65659;49.234;-2.094;2023-04-24T10:31:52;100090.82;;;17.64;34.67
73242;BME280;65659;49.234;-2.094;2023-04-24T10:34:13;100088.68;;;17.39;34.83
73242;BME280;65659;49.234;-2.094;2023-04-24T10:36:40;100090.75;;;17.56;35.26
73242;BME280;65659;49.234;-2.094;2023-04-24T10:39:08;100090.58;;;17.50;35.20
73242;BME280;65659;49.234;-2.094;2023-04-24T10:41:31;100092.57;;;17.83;35.09
73242;BME280;65659;49.234;-2.094;2023-04-24T10:44:11;100084.02;;;17.68;34.46
73242;BME280;65659;49.234;-2.094;2023-04-24T10:46:21;100089.13;;;17.75;34.68
73242;BME280;65659;49.234;-2.094;2023-04-24T10:48:44;100089.31;;;17.86;34.84
73242;BME280;65659;49.234;-2.094;2023-04-24T10:51:15;100081.10;;;17.80;35.22
73242;BME280;65659;49.234;-2.094;2023-04-24T10:53:34;100081.51;;;18.09;35.37
73242;BME280;65659;49.234;-2.094;2023-04-24T10:56:03;100083.13;;;17.71;35.63
73242;BME280;65659;49.234;-2.094;2023-04-24T10:58:39;100082.73;;;18.01;35.70
73242;BME280;65659;49.234;-2.094;2023-04-24T11:01:01;100078.95;;;18.02;35.62
73242;BME280;65659;49.234;-2.094;2023-04-24T11:03:25;100082.46;;;18.13;35.46
73242;BME280;65659;49.234;-2.094;2023-04-24T11:06:04;100076.99;;;18.36;35.14
73242;BME280;65659;49.234;-2.094;2023-04-24T11:10:42;100079.54;;;17.61;35.51
73242;BME280;65659;49.234;-2.094;2023-04-24T11:12:54;100078.10;;;18.24;35.52
73242;BME280;65659;49.234;-2.094;2023-04-24T11:15:19;100084.55;;;18.16;34.69
73242;BME280;65659;49.234;-2.094;2023-04-24T11:17:45;100084.01;;;18.19;34.17
73242;BME280;65659;49.234;-2.094;2023-04-24T11:20:11;100085.26;;;18.52;34.23
73242;BME280;65659;49.234;-2.094;2023-04-24T11:22:35;100081.13;;;19.85;34.51
73242;BME280;65659;49.234;-2.094;2023-04-24T11:25:00;100078.77;;;19.30;36.06
73242;BME280;65659;49.234;-2.094;2023-04-24T11:27:30;100088.67;;;18.53;37.66
73242;BME280;65659;49.234;-2.094;2023-04-24T11:29:59;100090.36;;;17.97;38.62
73242;BME280;65659;49.234;-2.094;2023-04-24T11:32:23;100096.47;;;17.73;39.27
73242;BME280;65659;49.234;-2.094;2023-04-24T11:34:41;100104.37;;;17.80;39.89
73242;BME280;65659;49.234;-2.094;2023-04-24T11:37:08;100093.18;;;17.72;40.19
73242;BME280;65659;49.234;-2.094;2023-04-24T11:39:38;100086.68;;;16.41;39.33
73242;BME280;65659;49.234;-2.094;2023-04-24T11:42:04;100088.71;;;16.70;37.87
73242;BME280;65659;49.234;-2.094;2023-04-24T11:44:25;100088.50;;;17.25;37.04
73242;BME280;65659;49.234;-2.094;2023-04-24T11:46:50;100113.95;;;17.57;36.36
73242;BME280;65659;49.234;-2.094;2023-04-24T11:49:31;100115.29;;;18.19;36.72
73242;BME280;65659;49.234;-2.094;2023-04-24T11:51:57;100097.65;;;17.48;37.61
73242;BME280;65659;49.234;-2.094;2023-04-24T11:54:16;100107.42;;;16.69;38.11
73242;BME280;65659;49.234;-2.094;2023-04-24T11:56:47;100114.37;;;16.83;38.20
73242;BME280;65659;49.234;-2.094;2023-04-24T12:04:19;100124.73;;;16.82;39.28
73242;BME280;65659;49.234;-2.094;2023-04-24T12:06:38;100116.07;;;16.41;38.66
73242;BME280;65659;49.234;-2.094;2023-04-24T12:09:21;100116.56;;;16.27;37.92
73242;BME280;65659;49.234;-2.094;2023-04-24T12:11:18;100113.71;;;16.28;38.01
73242;BME280;65659;49.234;-2.094;2023-04-24T12:13:30;100099.99;;;16.15;37.86
73242;BME280;65659;49.234;-2.094;2023-04-24T12:16:05;100100.07;;;15.99;37.61
73242;BME280;65659;49.234;-2.094;2023-04-24T12:18:27;100104.73;;;17.41;36.66
73242;BME280;65659;49.234;-2.094;2023-04-24T12:20:47;100103.37;;;16.70;35.44
73242;BME280;65659;49.234;-2.094;2023-04-24T12:23:13;100101.81;;;16.87;34.65
73242;BME280;65659;49.234;-2.094;2023-04-24T12:25:39;100099.04;;;17.37;34.03
73242;BME280;65659;49.234;-2.094;2023-04-24T12:28:37;100096.41;;;17.06;34.68
73242;BME280;65659;49.234;-2.094;2023-04-24T12:33:24;100102.43;;;17.36;34.85
73242;BME280;65659;49.234;-2.094;2023-04-24T12:35:25;100101.28;;;17.31;34.55
73242;BME280;65659;49.234;-2.094;2023-04-24T12:37:59;100093.62;;;17.94;33.90
73242;BME280;65659;49.234;-2.094;2023-04-24T12:40:29;100101.90;;;17.80;33.74
73242;BME280;65659;49.234;-2.094;2023-04-24T12:42:50;100106.94;;;18.42;32.59
73242;BME280;65659;49.234;-2.094;2023-04-24T12:45:06;100096.71;;;17.69;32.43
73242;BME280;65659;49.234;-2.094;2023-04-24T12:47:30;100100.95;;;18.04;31.90
73242;BME280;65659;49.234;-2.094;2023-04-24T12:50:00;100088.30;;;17.92;32.68
73242;BME280;65659;49.234;-2.094;2023-04-24T12:52:20;100099.13;;;17.86;32.84
73242;BME280;65659;49.234;-2.094;2023-04-24T12:54:45;100100.55;;;17.75;33.14
73242;BME280;65659;49.234;-2.094;2023-04-24T12:57:10;100097.60;;;18.36;32.76
73242;BME280;65659;49.234;-2.094;2023-04-24T13:02:08;100094.20;;;18.82;32.51